CCA4379 ZUCK-ZJHK
Flight info
| Callsign | CCA4379 |
|---|---|
| Flight time | N/A |
| Altitude | 38100 |
| Route | K0898S1160 VILUS1Z VILUS W180 BONSA/K0891S1190 W180 ELBAV W181 DUDIT/K0900S1160 DCT UVUNO/K0893S1190 R339 BHY W70 LIDLU LIDLU9XA |
| Aircraft | B77W/H-SDE1E2E3FGHIJ2J3J4J5M1RWXY/LB1D1 |
Departure
| Time | 2026-04-30 21:52 |
|---|---|
| Airport | Chongqing Jiangbei International Airport (ZUCK) |
Arrival
| Time | N/A |
|---|---|
| Airport | Haikou Meilan International Airport (ZJHK) |
| Time | Latitude | Longitude | Altitude | Speed | Heading |
|---|---|---|---|---|---|
| 2026-04-30 21:28 | 29.73247 | 106.66194 | 1364 ft | 0 kts | 341° |
| 2026-04-30 21:35 | 29.73227 | 106.66201 | 1339 ft | 4 kts | 347° |
| 2026-04-30 21:35 | 29.73201 | 106.66205 | 1339 ft | 4 kts | 360° |
| 2026-04-30 21:35 | 29.73175 | 106.66202 | 1339 ft | 4 kts | 20° |
| 2026-04-30 21:36 | 29.73154 | 106.66187 | 1344 ft | 4 kts | 66° |
| 2026-04-30 21:36 | 29.73152 | 106.66181 | 1340 ft | 2 kts | 74° |
| 2026-04-30 21:40 | 29.73153 | 106.66185 | 1337 ft | 2 kts | 74° |
| 2026-04-30 21:40 | 29.73158 | 106.66208 | 1337 ft | 4 kts | 74° |
| 2026-04-30 21:40 | 29.73169 | 106.66251 | 1336 ft | 7 kts | 74° |
| 2026-04-30 21:41 | 29.73184 | 106.66311 | 1334 ft | 9 kts | 71° |
| 2026-04-30 21:41 | 29.73225 | 106.66367 | 1333 ft | 10 kts | 53° |
| 2026-04-30 21:41 | 29.73223 | 106.66445 | 1332 ft | 11 kts | 103° |
| 2026-04-30 21:41 | 29.73195 | 106.66528 | 1331 ft | 11 kts | 135° |
| 2026-04-30 21:42 | 29.73118 | 106.66521 | 1331 ft | 12 kts | 195° |
| 2026-04-30 21:42 | 29.73041 | 106.66495 | 1332 ft | 12 kts | 196° |
| 2026-04-30 21:42 | 29.72995 | 106.66480 | 1332 ft | 12 kts | 196° |
| 2026-04-30 21:42 | 29.72924 | 106.66456 | 1333 ft | 12 kts | 196° |
| 2026-04-30 21:43 | 29.72846 | 106.66430 | 1333 ft | 12 kts | 196° |
| 2026-04-30 21:43 | 29.72769 | 106.66404 | 1334 ft | 12 kts | 196° |
| 2026-04-30 21:43 | 29.72693 | 106.66378 | 1334 ft | 12 kts | 197° |
| 2026-04-30 21:43 | 29.72616 | 106.66350 | 1335 ft | 12 kts | 197° |
| 2026-04-30 21:44 | 29.72539 | 106.66323 | 1336 ft | 12 kts | 197° |
| 2026-04-30 21:44 | 29.72462 | 106.66296 | 1336 ft | 12 kts | 197° |
| 2026-04-30 21:44 | 29.72385 | 106.66269 | 1336 ft | 12 kts | 197° |
| 2026-04-30 21:44 | 29.72308 | 106.66242 | 1337 ft | 12 kts | 197° |
| 2026-04-30 21:45 | 29.72232 | 106.66216 | 1338 ft | 12 kts | 197° |
| 2026-04-30 21:45 | 29.72155 | 106.66189 | 1338 ft | 12 kts | 197° |
| 2026-04-30 21:45 | 29.72078 | 106.66161 | 1343 ft | 12 kts | 197° |
| 2026-04-30 21:45 | 29.72002 | 106.66133 | 1343 ft | 12 kts | 197° |
| 2026-04-30 21:46 | 29.71926 | 106.66106 | 1343 ft | 12 kts | 197° |
| 2026-04-30 21:46 | 29.71849 | 106.66079 | 1344 ft | 12 kts | 197° |
| 2026-04-30 21:46 | 29.71772 | 106.66052 | 1345 ft | 12 kts | 197° |
| 2026-04-30 21:46 | 29.71696 | 106.66025 | 1344 ft | 12 kts | 197° |
| 2026-04-30 21:47 | 29.71620 | 106.65998 | 1346 ft | 12 kts | 197° |
| 2026-04-30 21:47 | 29.71544 | 106.65972 | 1347 ft | 11 kts | 196° |
| 2026-04-30 21:47 | 29.71489 | 106.65995 | 1347 ft | 9 kts | 110° |
| 2026-04-30 21:47 | 29.71486 | 106.66007 | 1347 ft | 0 kts | 108° |
| 2026-04-30 21:48 | 29.71486 | 106.66008 | 1347 ft | 0 kts | 108° |
| 2026-04-30 21:48 | 29.71484 | 106.66015 | 1346 ft | 2 kts | 108° |
| 2026-04-30 21:49 | 29.71480 | 106.66029 | 1345 ft | 2 kts | 108° |
| 2026-04-30 21:49 | 29.71474 | 106.66048 | 1347 ft | 3 kts | 108° |
| 2026-04-30 21:49 | 29.71468 | 106.66070 | 1345 ft | 3 kts | 108° |
| 2026-04-30 21:49 | 29.71462 | 106.66093 | 1346 ft | 3 kts | 103° |
| 2026-04-30 21:50 | 29.71459 | 106.66117 | 1344 ft | 3 kts | 92° |
| 2026-04-30 21:50 | 29.71467 | 106.66141 | 1345 ft | 3 kts | 58° |
| 2026-04-30 21:50 | 29.71486 | 106.66158 | 1348 ft | 4 kts | 30° |
| 2026-04-30 21:50 | 29.71516 | 106.66171 | 1345 ft | 5 kts | 15° |
| 2026-04-30 21:51 | 29.71521 | 106.66172 | 1346 ft | 0 kts | 15° |
| 2026-04-30 21:51 | 29.71639 | 106.66214 | 1345 ft | 41 kts | 17° |
| 2026-04-30 21:52 | 29.72181 | 106.66402 | 1335 ft | 123 kts | 17° |
| 2026-04-30 21:52 | 29.73202 | 106.66765 | 1332 ft | 187 kts | 15° |
| 2026-04-30 21:52 | 29.74601 | 106.67182 | 1586 ft | 216 kts | 16° |
| 2026-04-30 21:52 | 29.76110 | 106.67676 | 2247 ft | 231 kts | 19° |
| 2026-04-30 21:53 | 29.77602 | 106.68449 | 3040 ft | 226 kts | 40° |
| 2026-04-30 21:53 | 29.78840 | 106.69474 | 4109 ft | 218 kts | 39° |
| 2026-04-30 21:53 | 29.80134 | 106.70442 | 4741 ft | 233 kts | 37° |
| 2026-04-30 21:53 | 29.81551 | 106.71473 | 5358 ft | 246 kts | 35° |
| 2026-04-30 21:54 | 29.83045 | 106.72551 | 6007 ft | 259 kts | 35° |
| 2026-04-30 21:54 | 29.84521 | 106.73781 | 6602 ft | 264 kts | 51° |
| 2026-04-30 21:54 | 29.85486 | 106.75576 | 7115 ft | 261 kts | 76° |
| 2026-04-30 21:54 | 29.86036 | 106.77553 | 7573 ft | 259 kts | 81° |
| 2026-04-30 21:55 | 29.86104 | 106.79588 | 8034 ft | 253 kts | 112° |
| 2026-04-30 21:55 | 29.85495 | 106.81479 | 8548 ft | 257 kts | 117° |
| 2026-04-30 21:55 | 29.84841 | 106.83472 | 9049 ft | 280 kts | 115° |
| 2026-04-30 21:55 | 29.84173 | 106.85650 | 9824 ft | 295 kts | 113° |
| 2026-04-30 21:56 | 29.83510 | 106.87945 | 10458 ft | 305 kts | 112° |
| 2026-04-30 21:56 | 29.82865 | 106.90296 | 11055 ft | 309 kts | 112° |
| 2026-04-30 21:56 | 29.82229 | 106.92674 | 11661 ft | 313 kts | 112° |
| 2026-04-30 21:56 | 29.81596 | 106.95052 | 12242 ft | 320 kts | 112° |
| 2026-04-30 21:57 | 29.80909 | 106.97518 | 12876 ft | 319 kts | 118° |
| 2026-04-30 21:57 | 29.79675 | 106.99581 | 13492 ft | 309 kts | 146° |
| 2026-04-30 21:57 | 29.77846 | 107.00810 | 14095 ft | 300 kts | 169° |
| 2026-04-30 21:57 | 29.75838 | 107.01199 | 14684 ft | 296 kts | 184° |
| 2026-04-30 21:58 | 29.73798 | 107.00886 | 15260 ft | 296 kts | 199° |
| 2026-04-30 21:58 | 29.71764 | 107.00166 | 15502 ft | 324 kts | 201° |
| 2026-04-30 21:58 | 29.69529 | 106.99327 | 15714 ft | 353 kts | 201° |
| 2026-04-30 21:58 | 29.67088 | 106.98435 | 15994 ft | 376 kts | 200° |
| 2026-04-30 21:59 | 29.64533 | 106.97534 | 16585 ft | 389 kts | 200° |
| 2026-04-30 21:59 | 29.61942 | 106.96634 | 17283 ft | 397 kts | 199° |
| 2026-04-30 21:59 | 29.59181 | 106.96056 | 18053 ft | 409 kts | 187° |
| 2026-04-30 22:00 | 29.53370 | 106.96091 | 19391 ft | 423 kts | 184° |
| 2026-04-30 22:00 | 29.47407 | 106.96098 | 20687 ft | 434 kts | 184° |
| 2026-04-30 22:00 | 29.44398 | 106.96074 | 21268 ft | 441 kts | 185° |
| 2026-04-30 22:01 | 29.41301 | 106.96040 | 21880 ft | 446 kts | 185° |
| 2026-04-30 22:01 | 29.38174 | 106.96003 | 22487 ft | 452 kts | 185° |
| 2026-04-30 22:01 | 29.34998 | 106.95963 | 23065 ft | 458 kts | 185° |
| 2026-04-30 22:01 | 29.31783 | 106.95924 | 23592 ft | 464 kts | 184° |
| 2026-04-30 22:02 | 29.28541 | 106.95885 | 24093 ft | 468 kts | 184° |
| 2026-04-30 22:02 | 29.25305 | 106.95847 | 24633 ft | 470 kts | 184° |
| 2026-04-30 22:02 | 29.22015 | 106.95808 | 25197 ft | 473 kts | 185° |
| 2026-04-30 22:02 | 29.18753 | 106.95769 | 25733 ft | 475 kts | 185° |
| 2026-04-30 22:03 | 29.15426 | 106.95729 | 26259 ft | 479 kts | 185° |
| 2026-04-30 22:03 | 29.12074 | 106.95688 | 26759 ft | 482 kts | 185° |
| 2026-04-30 22:03 | 29.08705 | 106.95647 | 27252 ft | 486 kts | 185° |
| 2026-04-30 22:03 | 29.05308 | 106.95604 | 27756 ft | 489 kts | 185° |
| 2026-04-30 22:04 | 29.01886 | 106.95558 | 28220 ft | 492 kts | 184° |
| 2026-04-30 22:04 | 28.98459 | 106.95513 | 28680 ft | 494 kts | 184° |
| 2026-04-30 22:04 | 28.91566 | 106.95424 | 29549 ft | 500 kts | 185° |
| 2026-04-30 22:05 | 28.88073 | 106.95380 | 29934 ft | 503 kts | 185° |
| 2026-04-30 22:05 | 28.84612 | 106.95337 | 30426 ft | 501 kts | 185° |
| 2026-04-30 22:05 | 28.81140 | 106.95293 | 31010 ft | 497 kts | 185° |
| 2026-04-30 22:05 | 28.77690 | 106.95249 | 31569 ft | 494 kts | 185° |
| 2026-04-30 22:06 | 28.74257 | 106.95205 | 32118 ft | 493 kts | 185° |
| 2026-04-30 22:06 | 28.67430 | 106.95116 | 33088 ft | 491 kts | 185° |
| 2026-04-30 22:06 | 28.64015 | 106.95073 | 33610 ft | 489 kts | 186° |
| 2026-04-30 22:07 | 28.60605 | 106.95033 | 34100 ft | 488 kts | 186° |
| 2026-04-30 22:07 | 28.57209 | 106.94993 | 34518 ft | 487 kts | 186° |
| 2026-04-30 22:07 | 28.53860 | 106.94953 | 34885 ft | 487 kts | 186° |
| 2026-04-30 22:07 | 28.50461 | 106.94912 | 35244 ft | 487 kts | 186° |
| 2026-04-30 22:08 | 28.47062 | 106.94873 | 35615 ft | 487 kts | 186° |
| 2026-04-30 22:08 | 28.43717 | 106.94833 | 35944 ft | 487 kts | 186° |
| 2026-04-30 22:08 | 28.40327 | 106.94792 | 36267 ft | 488 kts | 186° |
| 2026-04-30 22:08 | 28.36918 | 106.94752 | 36632 ft | 487 kts | 186° |
| 2026-04-30 22:09 | 28.33523 | 106.94713 | 36994 ft | 487 kts | 186° |
| 2026-04-30 22:09 | 28.30131 | 106.94673 | 37327 ft | 487 kts | 186° |
| 2026-04-30 22:09 | 28.26780 | 106.94633 | 37644 ft | 487 kts | 186° |
| 2026-04-30 22:09 | 28.24476 | 106.94608 | 37859 ft | 487 kts | 186° |
| 2026-04-30 22:10 | 28.21108 | 106.94697 | 38022 ft | 493 kts | 183° |
| 2026-04-30 22:10 | 28.16538 | 106.94967 | 38082 ft | 495 kts | 182° |
| 2026-04-30 22:10 | 28.09692 | 106.95406 | 38064 ft | 487 kts | 183° |
| 2026-04-30 22:11 | 28.00704 | 106.95881 | 38064 ft | 483 kts | 183° |
| 2026-04-30 22:12 | 27.94495 | 106.96208 | 38083 ft | 483 kts | 183° |
| 2026-04-30 22:12 | 27.87732 | 106.96571 | 38068 ft | 484 kts | 183° |
| 2026-04-30 22:13 | 27.81000 | 106.96930 | 38086 ft | 484 kts | 183° |
| 2026-04-30 22:13 | 27.74299 | 106.97286 | 38082 ft | 485 kts | 183° |
| 2026-04-30 22:14 | 27.67542 | 106.97642 | 38081 ft | 486 kts | 183° |
| 2026-04-30 22:14 | 27.60748 | 106.98001 | 38080 ft | 487 kts | 183° |
| 2026-04-30 22:15 | 27.54018 | 106.98356 | 38072 ft | 487 kts | 182° |
| 2026-04-30 22:15 | 27.47233 | 106.98714 | 38079 ft | 487 kts | 182° |
| 2026-04-30 22:16 | 27.40456 | 106.99076 | 38087 ft | 487 kts | 182° |
| 2026-04-30 22:17 | 27.26946 | 106.99802 | 38082 ft | 486 kts | 182° |
| 2026-04-30 22:17 | 27.16826 | 107.00344 | 38088 ft | 486 kts | 182° |
| 2026-04-30 22:18 | 27.06728 | 107.00884 | 38081 ft | 485 kts | 182° |
| 2026-04-30 22:19 | 26.96568 | 107.01426 | 38084 ft | 486 kts | 182° |
| 2026-04-30 22:20 | 26.86431 | 107.01958 | 38106 ft | 489 kts | 182° |
| 2026-04-30 22:20 | 26.76173 | 107.02485 | 38108 ft | 491 kts | 182° |
| 2026-04-30 22:21 | 26.69358 | 107.02825 | 38107 ft | 492 kts | 182° |
| 2026-04-30 22:21 | 26.62519 | 107.03168 | 38116 ft | 491 kts | 182° |
| 2026-04-30 22:22 | 26.55726 | 107.03525 | 38118 ft | 491 kts | 182° |
| 2026-04-30 22:22 | 26.48890 | 107.03920 | 38120 ft | 490 kts | 182° |
| 2026-04-30 22:23 | 26.42084 | 107.04260 | 38115 ft | 489 kts | 183° |
| 2026-04-30 22:23 | 26.35332 | 107.04484 | 38128 ft | 488 kts | 183° |
| 2026-04-30 22:24 | 26.31952 | 107.04935 | 38130 ft | 494 kts | 169° |
| 2026-04-30 22:24 | 26.28698 | 107.06288 | 38137 ft | 502 kts | 156° |
| 2026-04-30 22:24 | 26.25752 | 107.08430 | 38140 ft | 509 kts | 141° |
| 2026-04-30 22:24 | 26.23226 | 107.11145 | 38171 ft | 510 kts | 137° |
| 2026-04-30 22:25 | 26.18234 | 107.16822 | 38139 ft | 513 kts | 137° |
| 2026-04-30 22:25 | 26.13176 | 107.22491 | 38148 ft | 516 kts | 137° |
| 2026-04-30 22:26 | 26.05526 | 107.30875 | 38146 ft | 518 kts | 138° |
| 2026-04-30 22:27 | 26.00390 | 107.36474 | 38140 ft | 519 kts | 138° |
| 2026-04-30 22:27 | 25.92685 | 107.44873 | 38140 ft | 519 kts | 138° |
| 2026-04-30 22:28 | 25.84949 | 107.53296 | 38133 ft | 517 kts | 138° |
| 2026-04-30 22:29 | 25.74704 | 107.64424 | 38144 ft | 515 kts | 138° |
| 2026-04-30 22:31 | 25.56881 | 107.83887 | 38144 ft | 516 kts | 137° |
| 2026-04-30 22:32 | 25.43137 | 107.96152 | 38127 ft | 503 kts | 164° |
| 2026-04-30 22:33 | 25.32962 | 107.97964 | 38132 ft | 495 kts | 179° |
| 2026-04-30 22:33 | 25.26096 | 107.98704 | 38140 ft | 497 kts | 178° |
| 2026-04-30 22:35 | 25.08886 | 108.00787 | 38124 ft | 501 kts | 178° |
| 2026-04-30 22:36 | 24.91548 | 108.02914 | 38122 ft | 502 kts | 178° |
| 2026-04-30 22:37 | 24.77653 | 108.04609 | 38121 ft | 501 kts | 178° |
| 2026-04-30 22:38 | 24.63823 | 108.06293 | 38114 ft | 500 kts | 178° |
| 2026-04-30 22:39 | 24.53417 | 108.07558 | 38122 ft | 500 kts | 178° |
| 2026-04-30 22:40 | 24.32730 | 108.10074 | 38123 ft | 499 kts | 177° |
| 2026-04-30 22:41 | 24.15536 | 108.12160 | 38120 ft | 498 kts | 177° |
| 2026-04-30 22:43 | 23.94875 | 108.14658 | 38114 ft | 498 kts | 177° |
| 2026-04-30 22:44 | 23.81255 | 108.14899 | 38125 ft | 485 kts | 199° |
| 2026-04-30 22:45 | 23.69614 | 108.08049 | 38116 ft | 477 kts | 215° |
| 2026-04-30 22:45 | 23.63943 | 108.04228 | 38122 ft | 478 kts | 214° |
| 2026-04-30 22:47 | 23.46869 | 107.92982 | 38115 ft | 478 kts | 214° |
| 2026-04-30 22:48 | 23.35475 | 107.85504 | 38109 ft | 478 kts | 214° |
| 2026-04-30 22:49 | 23.18368 | 107.74301 | 38108 ft | 479 kts | 215° |
| 2026-04-30 22:50 | 23.06516 | 107.67820 | 38112 ft | 489 kts | 189° |
| 2026-04-30 22:51 | 22.99796 | 107.69022 | 38111 ft | 503 kts | 157° |
| 2026-04-30 22:51 | 22.94294 | 107.73702 | 38128 ft | 509 kts | 134° |
| 2026-04-30 22:52 | 22.91905 | 107.76555 | 38110 ft | 511 kts | 133° |
| 2026-04-30 22:53 | 22.82265 | 107.87946 | 38097 ft | 514 kts | 134° |
| 2026-04-30 22:53 | 22.74875 | 107.96399 | 38098 ft | 513 kts | 134° |
| 2026-04-30 22:55 | 22.62659 | 108.10365 | 38093 ft | 510 kts | 134° |
| 2026-04-30 22:56 | 22.53237 | 108.21805 | 38096 ft | 509 kts | 130° |
| 2026-04-30 22:57 | 22.42656 | 108.35541 | 38100 ft | 509 kts | 130° |
| 2026-04-30 22:58 | 22.33540 | 108.47245 | 38101 ft | 509 kts | 131° |
| 2026-04-30 22:59 | 22.19831 | 108.64806 | 38107 ft | 509 kts | 131° |